• Join FlightAware (Why Join?)
  • Login
  • US Flag 
07:34AM EDT


 

Airport Tracker/Info


-or-


 

Live Flight TrackerFlight Track Log ✈ SWA543 ✈ 22-Sep-2013 ✈ KDAL - KAMA

Flight Track Log - Related Links

Times and Time Zones

All times are in EDT time to prevent confusion due to time zone crossing. See the SWA543 flight status page for this flight to view local times or setup timezone preferences in your user account.

Time Position Orientation Groundspeed Altitude Reporting Facility
EDT Latitude Longitude Course Direction KTS MPH feet Rate Location/Type
08:12AM 32.8333 -96.8167 168° South 173 199 1,600  Level Dallas / Fort Worth TRACON
08:14AM 32.7667 -96.8000 168° South 246 283 4,300 2,460 Climbing Dallas / Fort Worth TRACON
08:15AM 32.7000 -96.8333 203° Southwest 280 322 7,100 2,940 Climbing Dallas / Fort Worth TRACON
08:16AM 32.6667 -96.9000 239° Southwest 314 361 10,200 2,400 Climbing Dallas / Fort Worth TRACON
08:18AM 32.7267 -97.1639 285° West 380 437 15,300 2,220 Climbing Fort Worth Center
08:19AM 32.8019 -97.2800 308° West 402 463 17,800 2,460 Climbing Fort Worth Center
08:20AM 32.8522 -97.3911 298° West 420 483 20,200 2,220 Climbing Fort Worth Center
08:21AM 32.9083 -97.5322 295° West 425 489 22,300 2,280 Climbing Fort Worth Center
08:22AM 32.9583 -97.6658 294° West 432 497 24,800 1,920 Climbing Fort Worth Center
08:23AM 33.0103 -97.7950 296° West 432 497 26,200 1,620 Climbing Fort Worth Center
08:24AM 33.0597 -97.9314 293° West 442 509 28,100 1,860 Climbing Fort Worth Center
08:25AM 33.0969 -98.0308 294° West 437 503 30,000 1,680 Climbing Fort Worth Center
08:26AM 33.1506 -98.1703 295° West 426 490 31,500 1,380 Climbing Fort Worth Center
08:27AM 33.1956 -98.2922 294° West 421 484 32,800 1,380 Climbing Fort Worth Center
08:28AM 33.2614 -98.4047 305° West 416 479 34,300 1,260 Climbing Fort Worth Center
08:29AM 33.3400 -98.5200 309° West 408 470 35,400 840 Climbing Fort Worth Center
08:30AM 33.4078 -98.6253 308° West 408 470 36,000 300 Climbing Fort Worth Center
08:31AM 33.4778 -98.7308 309° West 408 470 36,000  Level Fort Worth Center
08:32AM 33.5475 -98.8417 307° West 413 475 36,000  Level Fort Worth Center
08:33AM 33.6108 -98.9425 307° West 422 486 36,000  Level Fort Worth Center
08:34AM 33.6783 -99.0483 307° West 417 480 36,000  Level Fort Worth Center
08:35AM 33.7519 -99.1647 307° West 406 467 36,000  Level Fort Worth Center
08:36AM 33.8192 -99.2736 307° West 406 467 36,000  Level Fort Worth Center
08:37AM 33.8867 -99.3800 307° West 406 467 36,000  Level Fort Worth Center
08:38AM 33.9536 -99.4892 306° West 406 467 36,000  Level Fort Worth Center
08:39AM 34.0228 -99.6011 307° West 417 480 36,000  Level Fort Worth Center
08:40AM 34.0897 -99.7056 308° West 417 480 36,000  Level Fort Worth Center
08:41AM 34.1586 -99.8153 307° West 417 480 36,000  Level Fort Worth Center
08:42AM 34.2253 -99.9278 306° West 417 480 36,000  Level Fort Worth Center
08:43AM 34.2919 -100.0353 307° West 417 480 36,000  Level Fort Worth Center
08:45AM 34.3878 -100.1911 307° West 409 471 36,000  Level Albuquerque Center
08:46AM 34.4544 -100.3014 306° West 408 470 36,000 -1,920 Level Albuquerque Center
08:47AM 34.5367 -100.4353 307° West 411 473 32,200 -3,480 Descending Albuquerque Center
08:48AM 34.6053 -100.5478 307° West 415 478 29,000 -3,000 Descending Albuquerque Center
08:49AM 34.6722 -100.6575 307° West 409 471 26,300 -3,060 Descending Albuquerque Center
08:50AM 34.7364 -100.7672 305° West 401 461 22,900 -3,120 Descending Albuquerque Center
08:51AM 34.8025 -100.8758 307° West 401 461 20,000 -2,820 Descending Albuquerque Center
08:52AM 34.8664 -100.9839 306° West 396 456 17,300 -2,820 Descending Albuquerque Center
08:53AM 34.9294 -101.0886 306° West 389 448 14,500 -2,700 Descending Albuquerque Center
08:54AM 34.9917 -101.1928 306° West 382 440 11,900 -2,160 Descending Albuquerque Center
08:55AM 35.0506 -101.2925 306° West 371 427 10,200 -1,500 Descending Albuquerque Center
08:56AM 35.1011 -101.3786 306° West 327 376 9,000 -960 Descending Albuquerque Center
08:57AM 35.1481 -101.4575 306° West 297 342 8,300 -1,200 Descending Albuquerque Center
08:58AM 35.1908 -101.5306 306° West 272 313 6,600 -1,140 Descending Albuquerque Center
08:59AM 35.2317 -101.6000 306° West 264 304 6,100 -720 Descending Albuquerque Center
09:00AM 35.2531 -101.6497 298° West 206 237 5,200 -1,140 Descending Albuquerque Center
09:01AM 35.2386 -101.6903 246° West 150 173 3,800 -1,380 Descending Albuquerque Center